sensor_id;sensor_type;location;lat;lon;timestamp;P1;durP1;ratioP1;P2;durP2;ratioP2
14203;SDS011;7185;51.854;6.622;2022-08-19T00:01:42;12.18;;;8.13;;
14203;SDS011;7185;51.854;6.622;2022-08-19T00:04:17;12.90;;;8.88;;
14203;SDS011;7185;51.854;6.622;2022-08-19T00:06:51;11.00;;;8.60;;
14203;SDS011;7185;51.854;6.622;2022-08-19T00:09:23;10.77;;;8.38;;
14203;SDS011;7185;51.854;6.622;2022-08-19T00:11:56;11.68;;;8.60;;
14203;SDS011;7185;51.854;6.622;2022-08-19T00:14:30;11.32;;;8.50;;
14203;SDS011;7185;51.854;6.622;2022-08-19T00:17:02;9.32;;;7.82;;
14203;SDS011;7185;51.854;6.622;2022-08-19T00:19:36;10.95;;;8.48;;
14203;SDS011;7185;51.854;6.622;2022-08-19T00:22:08;12.98;;;9.05;;
14203;SDS011;7185;51.854;6.622;2022-08-19T00:24:40;12.57;;;8.88;;
14203;SDS011;7185;51.854;6.622;2022-08-19T00:27:13;10.77;;;8.48;;
14203;SDS011;7185;51.854;6.622;2022-08-19T00:29:47;11.10;;;8.90;;
14203;SDS011;7185;51.854;6.622;2022-08-19T00:32:19;13.35;;;9.20;;
14203;SDS011;7185;51.854;6.622;2022-08-19T00:34:51;12.93;;;8.55;;
14203;SDS011;7185;51.854;6.622;2022-08-19T00:37:24;13.15;;;9.98;;
14203;SDS011;7185;51.854;6.622;2022-08-19T00:39:56;12.38;;;9.43;;
14203;SDS011;7185;51.854;6.622;2022-08-19T00:42:28;11.75;;;8.95;;
14203;SDS011;7185;51.854;6.622;2022-08-19T00:45:02;12.40;;;9.27;;
14203;SDS011;7185;51.854;6.622;2022-08-19T00:47:39;12.82;;;9.45;;
14203;SDS011;7185;51.854;6.622;2022-08-19T00:50:12;14.02;;;9.15;;
14203;SDS011;7185;51.854;6.622;2022-08-19T00:52:47;13.48;;;9.55;;
14203;SDS011;7185;51.854;6.622;2022-08-19T00:55:21;12.20;;;9.30;;
14203;SDS011;7185;51.854;6.622;2022-08-19T00:58:00;13.50;;;9.95;;
14203;SDS011;7185;51.854;6.622;2022-08-19T01:00:35;14.93;;;10.63;;
14203;SDS011;7185;51.854;6.622;2022-08-19T01:03:09;13.95;;;9.80;;
14203;SDS011;7185;51.854;6.622;2022-08-19T01:05:42;15.23;;;10.23;;
14203;SDS011;7185;51.854;6.622;2022-08-19T01:08:16;14.32;;;10.05;;
14203;SDS011;7185;51.854;6.622;2022-08-19T01:10:49;17.25;;;10.40;;
14203;SDS011;7185;51.854;6.622;2022-08-19T01:13:25;15.05;;;9.90;;
14203;SDS011;7185;51.854;6.622;2022-08-19T01:16:01;14.00;;;10.70;;
14203;SDS011;7185;51.854;6.622;2022-08-19T01:18:36;14.07;;;10.35;;
14203;SDS011;7185;51.854;6.622;2022-08-19T01:21:12;12.52;;;9.55;;
14203;SDS011;7185;51.854;6.622;2022-08-19T01:23:52;16.70;;;11.02;;
14203;SDS011;7185;51.854;6.622;2022-08-19T01:26:24;15.88;;;9.80;;
14203;SDS011;7185;51.854;6.622;2022-08-19T01:28:58;12.48;;;10.15;;
14203;SDS011;7185;51.854;6.622;2022-08-19T01:31:31;12.63;;;10.55;;
14203;SDS011;7185;51.854;6.622;2022-08-19T01:34:02;15.15;;;9.93;;
14203;SDS011;7185;51.854;6.622;2022-08-19T01:36:36;16.25;;;11.23;;
14203;SDS011;7185;51.854;6.622;2022-08-19T01:39:11;14.70;;;11.15;;
14203;SDS011;7185;51.854;6.622;2022-08-19T01:41:45;12.88;;;9.82;;
14203;SDS011;7185;51.854;6.622;2022-08-19T01:44:17;15.77;;;9.52;;
14203;SDS011;7185;51.854;6.622;2022-08-19T01:46:50;13.15;;;9.45;;
14203;SDS011;7185;51.854;6.622;2022-08-19T01:49:23;15.00;;;10.43;;
14203;SDS011;7185;51.854;6.622;2022-08-19T01:51:58;14.68;;;10.32;;
14203;SDS011;7185;51.854;6.622;2022-08-19T01:54:32;14.68;;;10.73;;
14203;SDS011;7185;51.854;6.622;2022-08-19T01:57:05;13.90;;;10.25;;
14203;SDS011;7185;51.854;6.622;2022-08-19T01:59:41;13.95;;;10.70;;
14203;SDS011;7185;51.854;6.622;2022-08-19T02:02:16;18.13;;;11.02;;
14203;SDS011;7185;51.854;6.622;2022-08-19T02:04:47;14.95;;;10.45;;
14203;SDS011;7185;51.854;6.622;2022-08-19T02:07:20;14.02;;;10.00;;
14203;SDS011;7185;51.854;6.622;2022-08-19T02:09:53;16.20;;;10.38;;
14203;SDS011;7185;51.854;6.622;2022-08-19T02:12:26;15.48;;;10.30;;
14203;SDS011;7185;51.854;6.622;2022-08-19T02:14:58;16.38;;;10.95;;
14203;SDS011;7185;51.854;6.622;2022-08-19T02:17:31;16.60;;;10.85;;
14203;SDS011;7185;51.854;6.622;2022-08-19T02:20:03;13.75;;;9.43;;
14203;SDS011;7185;51.854;6.622;2022-08-19T02:22:37;14.30;;;10.35;;
14203;SDS011;7185;51.854;6.622;2022-08-19T02:25:13;15.95;;;10.93;;
14203;SDS011;7185;51.854;6.622;2022-08-19T02:27:45;16.08;;;11.00;;
14203;SDS011;7185;51.854;6.622;2022-08-19T02:30:17;13.95;;;10.27;;
14203;SDS011;7185;51.854;6.622;2022-08-19T02:32:49;19.70;;;11.32;;
14203;SDS011;7185;51.854;6.622;2022-08-19T02:35:21;17.27;;;11.27;;
14203;SDS011;7185;51.854;6.622;2022-08-19T02:37:53;14.48;;;10.30;;
14203;SDS011;7185;51.854;6.622;2022-08-19T02:40:48;16.40;;;10.23;;
14203;SDS011;7185;51.854;6.622;2022-08-19T02:43:21;15.70;;;10.35;;
14203;SDS011;7185;51.854;6.622;2022-08-19T02:45:54;13.10;;;9.95;;
14203;SDS011;7185;51.854;6.622;2022-08-19T02:48:26;15.13;;;10.18;;
14203;SDS011;7185;51.854;6.622;2022-08-19T02:50:57;15.18;;;11.00;;
14203;SDS011;7185;51.854;6.622;2022-08-19T02:53:29;16.25;;;11.98;;
14203;SDS011;7185;51.854;6.622;2022-08-19T02:56:05;16.98;;;12.45;;
14203;SDS011;7185;51.854;6.622;2022-08-19T02:58:38;15.77;;;11.43;;
14203;SDS011;7185;51.854;6.622;2022-08-19T03:01:10;16.60;;;11.65;;
14203;SDS011;7185;51.854;6.622;2022-08-19T03:03:42;17.88;;;12.57;;
14203;SDS011;7185;51.854;6.622;2022-08-19T03:06:15;17.63;;;12.80;;
14203;SDS011;7185;51.854;6.622;2022-08-19T03:15:26;16.38;;;11.10;;
14203;SDS011;7185;51.854;6.622;2022-08-19T03:17:58;15.73;;;11.07;;
14203;SDS011;7185;51.854;6.622;2022-08-19T03:20:29;15.45;;;11.35;;
14203;SDS011;7185;51.854;6.622;2022-08-19T03:23:01;15.88;;;10.95;;
14203;SDS011;7185;51.854;6.622;2022-08-19T03:25:35;15.90;;;10.32;;
14203;SDS011;7185;51.854;6.622;2022-08-19T03:28:09;15.63;;;11.68;;
14203;SDS011;7185;51.854;6.622;2022-08-19T03:30:54;15.57;;;10.35;;
14203;SDS011;7185;51.854;6.622;2022-08-19T03:33:28;15.02;;;10.52;;
14203;SDS011;7185;51.854;6.622;2022-08-19T03:36:01;16.10;;;10.80;;
14203;SDS011;7185;51.854;6.622;2022-08-19T03:38:35;15.18;;;10.85;;
14203;SDS011;7185;51.854;6.622;2022-08-19T03:41:08;15.18;;;10.60;;
14203;SDS011;7185;51.854;6.622;2022-08-19T03:43:43;18.83;;;12.07;;
14203;SDS011;7185;51.854;6.622;2022-08-19T03:46:20;14.10;;;10.82;;
14203;SDS011;7185;51.854;6.622;2022-08-19T03:48:55;14.95;;;10.68;;
14203;SDS011;7185;51.854;6.622;2022-08-19T03:51:30;15.70;;;10.15;;
14203;SDS011;7185;51.854;6.622;2022-08-19T03:54:06;15.27;;;10.95;;
14203;SDS011;7185;51.854;6.622;2022-08-19T03:56:41;14.35;;;10.88;;
14203;SDS011;7185;51.854;6.622;2022-08-19T03:59:15;16.02;;;10.73;;
14203;SDS011;7185;51.854;6.622;2022-08-19T04:01:49;12.32;;;9.43;;
14203;SDS011;7185;51.854;6.622;2022-08-19T04:04:21;13.23;;;9.57;;
14203;SDS011;7185;51.854;6.622;2022-08-19T04:06:53;15.88;;;11.25;;
14203;SDS011;7185;51.854;6.622;2022-08-19T04:09:25;15.10;;;11.00;;
14203;SDS011;7185;51.854;6.622;2022-08-19T04:11:57;14.35;;;10.57;;
14203;SDS011;7185;51.854;6.622;2022-08-19T04:14:29;15.38;;;11.60;;
14203;SDS011;7185;51.854;6.622;2022-08-19T04:17:03;16.08;;;11.57;;
14203;SDS011;7185;51.854;6.622;2022-08-19T04:19:35;14.77;;;10.55;;
14203;SDS011;7185;51.854;6.622;2022-08-19T04:22:08;13.73;;;9.95;;
14203;SDS011;7185;51.854;6.622;2022-08-19T04:24:41;16.38;;;10.52;;
14203;SDS011;7185;51.854;6.622;2022-08-19T04:27:12;18.88;;;11.75;;
14203;SDS011;7185;51.854;6.622;2022-08-19T04:29:44;17.63;;;12.07;;
14203;SDS011;7185;51.854;6.622;2022-08-19T04:32:19;18.05;;;12.13;;
14203;SDS011;7185;51.854;6.622;2022-08-19T04:34:51;20.00;;;13.82;;
14203;SDS011;7185;51.854;6.622;2022-08-19T04:37:23;20.15;;;13.57;;
14203;SDS011;7185;51.854;6.622;2022-08-19T04:39:56;17.25;;;12.73;;
14203;SDS011;7185;51.854;6.622;2022-08-19T04:42:45;18.73;;;13.48;;
14203;SDS011;7185;51.854;6.622;2022-08-19T04:45:17;17.08;;;12.70;;
14203;SDS011;7185;51.854;6.622;2022-08-19T04:47:53;17.58;;;12.77;;
14203;SDS011;7185;51.854;6.622;2022-08-19T04:50:27;15.13;;;11.30;;
14203;SDS011;7185;51.854;6.622;2022-08-19T04:52:58;16.08;;;12.02;;
14203;SDS011;7185;51.854;6.622;2022-08-19T04:55:30;17.73;;;11.13;;
14203;SDS011;7185;51.854;6.622;2022-08-19T04:58:02;16.35;;;12.50;;
14203;SDS011;7185;51.854;6.622;2022-08-19T05:00:34;19.85;;;13.77;;
14203;SDS011;7185;51.854;6.622;2022-08-19T05:03:09;21.60;;;14.02;;
14203;SDS011;7185;51.854;6.622;2022-08-19T05:05:41;18.88;;;14.00;;
14203;SDS011;7185;51.854;6.622;2022-08-19T05:08:17;20.42;;;13.70;;
14203;SDS011;7185;51.854;6.622;2022-08-19T05:10:51;20.67;;;13.65;;
14203;SDS011;7185;51.854;6.622;2022-08-19T05:13:26;20.25;;;13.63;;
14203;SDS011;7185;51.854;6.622;2022-08-19T05:15:58;20.05;;;13.20;;
14203;SDS011;7185;51.854;6.622;2022-08-19T05:18:37;20.83;;;14.00;;
14203;SDS011;7185;51.854;6.622;2022-08-19T05:21:27;17.85;;;14.02;;
14203;SDS011;7185;51.854;6.622;2022-08-19T05:24:17;21.15;;;13.85;;
14203;SDS011;7185;51.854;6.622;2022-08-19T05:26:50;21.17;;;14.18;;
14203;SDS011;7185;51.854;6.622;2022-08-19T05:29:26;17.48;;;13.25;;
14203;SDS011;7185;51.854;6.622;2022-08-19T05:32:03;17.70;;;13.00;;
14203;SDS011;7185;51.854;6.622;2022-08-19T05:34:40;17.95;;;12.27;;
14203;SDS011;7185;51.854;6.622;2022-08-19T05:37:12;18.60;;;12.52;;
14203;SDS011;7185;51.854;6.622;2022-08-19T05:39:43;19.50;;;12.15;;
14203;SDS011;7185;51.854;6.622;2022-08-19T05:42:17;18.70;;;12.45;;
14203;SDS011;7185;51.854;6.622;2022-08-19T05:44:51;16.80;;;12.10;;
14203;SDS011;7185;51.854;6.622;2022-08-19T05:47:22;16.30;;;11.35;;
14203;SDS011;7185;51.854;6.622;2022-08-19T05:49:56;18.67;;;13.15;;
14203;SDS011;7185;51.854;6.622;2022-08-19T05:52:27;18.77;;;13.00;;
14203;SDS011;7185;51.854;6.622;2022-08-19T05:54:59;17.42;;;13.05;;
14203;SDS011;7185;51.854;6.622;2022-08-19T05:57:30;19.05;;;11.98;;
14203;SDS011;7185;51.854;6.622;2022-08-19T06:00:03;20.45;;;14.27;;
14203;SDS011;7185;51.854;6.622;2022-08-19T06:02:38;19.92;;;14.70;;
14203;SDS011;7185;51.854;6.622;2022-08-19T06:05:12;19.90;;;13.50;;
14203;SDS011;7185;51.854;6.622;2022-08-19T06:07:47;21.52;;;14.60;;
14203;SDS011;7185;51.854;6.622;2022-08-19T06:10:19;25.92;;;18.02;;
14203;SDS011;7185;51.854;6.622;2022-08-19T06:12:52;21.35;;;15.90;;
14203;SDS011;7185;51.854;6.622;2022-08-19T06:15:23;22.70;;;16.38;;
14203;SDS011;7185;51.854;6.622;2022-08-19T06:17:57;24.38;;;18.30;;
14203;SDS011;7185;51.854;6.622;2022-08-19T06:20:31;25.10;;;17.33;;
14203;SDS011;7185;51.854;6.622;2022-08-19T06:23:03;26.73;;;17.48;;
14203;SDS011;7185;51.854;6.622;2022-08-19T06:25:34;27.65;;;18.55;;
14203;SDS011;7185;51.854;6.622;2022-08-19T06:28:06;29.15;;;19.75;;
14203;SDS011;7185;51.854;6.622;2022-08-19T06:30:38;23.48;;;17.17;;
14203;SDS011;7185;51.854;6.622;2022-08-19T06:33:10;27.35;;;18.90;;
14203;SDS011;7185;51.854;6.622;2022-08-19T06:35:43;27.98;;;18.77;;
14203;SDS011;7185;51.854;6.622;2022-08-19T06:38:14;27.60;;;19.67;;
14203;SDS011;7185;51.854;6.622;2022-08-19T06:40:50;26.88;;;19.30;;
14203;SDS011;7185;51.854;6.622;2022-08-19T06:43:22;34.55;;;21.80;;
14203;SDS011;7185;51.854;6.622;2022-08-19T06:45:53;38.30;;;24.15;;
14203;SDS011;7185;51.854;6.622;2022-08-19T06:48:25;34.15;;;23.05;;
14203;SDS011;7185;51.854;6.622;2022-08-19T06:50:58;30.70;;;22.02;;
14203;SDS011;7185;51.854;6.622;2022-08-19T06:53:30;35.15;;;23.40;;
14203;SDS011;7185;51.854;6.622;2022-08-19T06:56:01;33.92;;;24.00;;
14203;SDS011;7185;51.854;6.622;2022-08-19T06:58:34;34.60;;;24.73;;
14203;SDS011;7185;51.854;6.622;2022-08-19T07:01:06;35.97;;;24.85;;
14203;SDS011;7185;51.854;6.622;2022-08-19T07:03:38;35.63;;;23.25;;
14203;SDS011;7185;51.854;6.622;2022-08-19T07:06:13;34.25;;;24.52;;
14203;SDS011;7185;51.854;6.622;2022-08-19T07:08:47;35.20;;;25.00;;
14203;SDS011;7185;51.854;6.622;2022-08-19T07:11:20;37.53;;;24.17;;
14203;SDS011;7185;51.854;6.622;2022-08-19T07:13:52;36.88;;;25.20;;
14203;SDS011;7185;51.854;6.622;2022-08-19T07:16:24;38.83;;;25.05;;
14203;SDS011;7185;51.854;6.622;2022-08-19T07:18:57;33.95;;;23.58;;
14203;SDS011;7185;51.854;6.622;2022-08-19T07:21:30;35.97;;;25.05;;
14203;SDS011;7185;51.854;6.622;2022-08-19T07:24:02;35.15;;;24.27;;
14203;SDS011;7185;51.854;6.622;2022-08-19T07:26:37;42.25;;;26.27;;
14203;SDS011;7185;51.854;6.622;2022-08-19T07:29:11;39.47;;;25.05;;
14203;SDS011;7185;51.854;6.622;2022-08-19T07:31:45;37.67;;;23.73;;
14203;SDS011;7185;51.854;6.622;2022-08-19T07:34:18;36.47;;;25.20;;
14203;SDS011;7185;51.854;6.622;2022-08-19T07:36:51;36.70;;;26.02;;
14203;SDS011;7185;51.854;6.622;2022-08-19T07:39:25;36.83;;;25.95;;
14203;SDS011;7185;51.854;6.622;2022-08-19T07:42:03;37.30;;;26.15;;
14203;SDS011;7185;51.854;6.622;2022-08-19T07:44:39;37.92;;;25.80;;
14203;SDS011;7185;51.854;6.622;2022-08-19T07:47:11;34.97;;;25.75;;
14203;SDS011;7185;51.854;6.622;2022-08-19T07:49:45;35.03;;;25.05;;
14203;SDS011;7185;51.854;6.622;2022-08-19T07:52:18;38.10;;;25.25;;
14203;SDS011;7185;51.854;6.622;2022-08-19T07:54:50;35.45;;;24.40;;
14203;SDS011;7185;51.854;6.622;2022-08-19T07:57:22;34.60;;;24.45;;
14203;SDS011;7185;51.854;6.622;2022-08-19T07:59:54;39.47;;;25.02;;
14203;SDS011;7185;51.854;6.622;2022-08-19T08:02:26;37.22;;;23.98;;
14203;SDS011;7185;51.854;6.622;2022-08-19T08:04:57;35.88;;;24.10;;
14203;SDS011;7185;51.854;6.622;2022-08-19T08:07:48;36.97;;;25.08;;
14203;SDS011;7185;51.854;6.622;2022-08-19T08:10:37;38.17;;;24.83;;
14203;SDS011;7185;51.854;6.622;2022-08-19T08:13:09;37.75;;;24.80;;
14203;SDS011;7185;51.854;6.622;2022-08-19T08:15:40;35.53;;;23.17;;
14203;SDS011;7185;51.854;6.622;2022-08-19T08:18:14;34.47;;;23.48;;
14203;SDS011;7185;51.854;6.622;2022-08-19T08:20:46;36.00;;;24.50;;
14203;SDS011;7185;51.854;6.622;2022-08-19T08:23:19;34.78;;;23.70;;
14203;SDS011;7185;51.854;6.622;2022-08-19T08:25:55;34.72;;;21.60;;
14203;SDS011;7185;51.854;6.622;2022-08-19T08:28:28;36.53;;;23.17;;
14203;SDS011;7185;51.854;6.622;2022-08-19T08:30:59;30.38;;;21.20;;
14203;SDS011;7185;51.854;6.622;2022-08-19T08:33:34;32.70;;;21.33;;
14203;SDS011;7185;51.854;6.622;2022-08-19T08:36:06;34.22;;;22.60;;
14203;SDS011;7185;51.854;6.622;2022-08-19T08:38:40;29.88;;;20.65;;
14203;SDS011;7185;51.854;6.622;2022-08-19T08:41:17;28.77;;;20.48;;
14203;SDS011;7185;51.854;6.622;2022-08-19T08:43:58;25.35;;;18.35;;
14203;SDS011;7185;51.854;6.622;2022-08-19T08:46:30;30.58;;;19.95;;
14203;SDS011;7185;51.854;6.622;2022-08-19T08:49:11;28.80;;;19.42;;
14203;SDS011;7185;51.854;6.622;2022-08-19T08:52:03;29.33;;;19.70;;
14203;SDS011;7185;51.854;6.622;2022-08-19T08:54:38;30.02;;;18.88;;
14203;SDS011;7185;51.854;6.622;2022-08-19T08:57:13;28.20;;;19.27;;
14203;SDS011;7185;51.854;6.622;2022-08-19T08:59:54;25.38;;;17.85;;
14203;SDS011;7185;51.854;6.622;2022-08-19T09:02:29;26.58;;;18.88;;
14203;SDS011;7185;51.854;6.622;2022-08-19T09:05:01;26.83;;;18.85;;
14203;SDS011;7185;51.854;6.622;2022-08-19T09:10:14;28.05;;;18.98;;
14203;SDS011;7185;51.854;6.622;2022-08-19T09:12:53;28.50;;;18.20;;
14203;SDS011;7185;51.854;6.622;2022-08-19T09:15:34;20.95;;;15.75;;
14203;SDS011;7185;51.854;6.622;2022-08-19T09:18:10;27.95;;;17.95;;
14203;SDS011;7185;51.854;6.622;2022-08-19T09:20:42;23.77;;;17.55;;
14203;SDS011;7185;51.854;6.622;2022-08-19T09:23:14;22.55;;;16.42;;
14203;SDS011;7185;51.854;6.622;2022-08-19T09:25:47;23.70;;;16.70;;
14203;SDS011;7185;51.854;6.622;2022-08-19T09:28:19;26.00;;;16.15;;
14203;SDS011;7185;51.854;6.622;2022-08-19T09:30:51;23.17;;;16.10;;
14203;SDS011;7185;51.854;6.622;2022-08-19T09:33:22;21.00;;;15.55;;
14203;SDS011;7185;51.854;6.622;2022-08-19T09:36:01;23.17;;;16.77;;
14203;SDS011;7185;51.854;6.622;2022-08-19T09:38:34;26.85;;;19.23;;
14203;SDS011;7185;51.854;6.622;2022-08-19T09:41:09;25.20;;;18.02;;
14203;SDS011;7185;51.854;6.622;2022-08-19T09:43:44;30.40;;;20.25;;
14203;SDS011;7185;51.854;6.622;2022-08-19T09:46:17;27.98;;;20.50;;
14203;SDS011;7185;51.854;6.622;2022-08-19T09:48:50;30.73;;;20.92;;
14203;SDS011;7185;51.854;6.622;2022-08-19T09:51:23;29.17;;;20.98;;
14203;SDS011;7185;51.854;6.622;2022-08-19T09:53:59;32.15;;;21.83;;
14203;SDS011;7185;51.854;6.622;2022-08-19T09:56:34;28.13;;;20.10;;
14203;SDS011;7185;51.854;6.622;2022-08-19T09:59:05;27.20;;;18.98;;
14203;SDS011;7185;51.854;6.622;2022-08-19T10:01:37;28.17;;;19.30;;
14203;SDS011;7185;51.854;6.622;2022-08-19T10:04:09;27.13;;;18.55;;
14203;SDS011;7185;51.854;6.622;2022-08-19T10:06:42;25.98;;;17.10;;
14203;SDS011;7185;51.854;6.622;2022-08-19T10:09:14;23.95;;;16.67;;
14203;SDS011;7185;51.854;6.622;2022-08-19T10:11:49;17.85;;;13.32;;
14203;SDS011;7185;51.854;6.622;2022-08-19T10:14:21;15.30;;;10.55;;
14203;SDS011;7185;51.854;6.622;2022-08-19T10:16:53;19.35;;;13.27;;
14203;SDS011;7185;51.854;6.622;2022-08-19T10:19:25;27.33;;;16.63;;
14203;SDS011;7185;51.854;6.622;2022-08-19T10:22:02;27.83;;;18.00;;
14203;SDS011;7185;51.854;6.622;2022-08-19T10:24:35;25.05;;;18.33;;
14203;SDS011;7185;51.854;6.622;2022-08-19T10:27:08;24.35;;;16.15;;
14203;SDS011;7185;51.854;6.622;2022-08-19T10:29:40;25.02;;;16.45;;
14203;SDS011;7185;51.854;6.622;2022-08-19T10:32:13;23.45;;;16.95;;
14203;SDS011;7185;51.854;6.622;2022-08-19T10:34:44;21.10;;;14.57;;
14203;SDS011;7185;51.854;6.622;2022-08-19T10:37:16;20.77;;;13.80;;
14203;SDS011;7185;51.854;6.622;2022-08-19T10:39:48;15.30;;;10.90;;
14203;SDS011;7185;51.854;6.622;2022-08-19T10:42:21;18.23;;;12.60;;
14203;SDS011;7185;51.854;6.622;2022-08-19T10:44:53;18.17;;;12.32;;
14203;SDS011;7185;51.854;6.622;2022-08-19T10:47:25;22.35;;;11.88;;
14203;SDS011;7185;51.854;6.622;2022-08-19T10:49:56;18.25;;;13.07;;
14203;SDS011;7185;51.854;6.622;2022-08-19T10:52:47;16.70;;;11.38;;
14203;SDS011;7185;51.854;6.622;2022-08-19T10:55:20;14.32;;;9.75;;
14203;SDS011;7185;51.854;6.622;2022-08-19T10:58:13;10.40;;;7.70;;
14203;SDS011;7185;51.854;6.622;2022-08-19T11:00:50;13.07;;;8.02;;
14203;SDS011;7185;51.854;6.622;2022-08-19T11:03:23;13.98;;;9.45;;
14203;SDS011;7185;51.854;6.622;2022-08-19T11:05:58;12.88;;;9.00;;
14203;SDS011;7185;51.854;6.622;2022-08-19T11:08:30;12.07;;;8.88;;
14203;SDS011;7185;51.854;6.622;2022-08-19T11:11:03;14.38;;;8.73;;
14203;SDS011;7185;51.854;6.622;2022-08-19T11:13:39;13.63;;;8.98;;
14203;SDS011;7185;51.854;6.622;2022-08-19T11:18:46;12.38;;;7.35;;
14203;SDS011;7185;51.854;6.622;2022-08-19T11:21:21;7.25;;;5.45;;
14203;SDS011;7185;51.854;6.622;2022-08-19T11:23:55;9.02;;;6.00;;
14203;SDS011;7185;51.854;6.622;2022-08-19T11:26:28;9.30;;;7.28;;
14203;SDS011;7185;51.854;6.622;2022-08-19T11:29:03;8.98;;;6.75;;
14203;SDS011;7185;51.854;6.622;2022-08-19T11:31:36;9.40;;;5.93;;
14203;SDS011;7185;51.854;6.622;2022-08-19T11:34:09;9.27;;;5.97;;
14203;SDS011;7185;51.854;6.622;2022-08-19T11:36:44;9.38;;;6.72;;
14203;SDS011;7185;51.854;6.622;2022-08-19T11:39:18;9.90;;;6.68;;
14203;SDS011;7185;51.854;6.622;2022-08-19T11:41:52;7.93;;;4.88;;
14203;SDS011;7185;51.854;6.622;2022-08-19T11:44:25;11.02;;;6.95;;
14203;SDS011;7185;51.854;6.622;2022-08-19T11:46:57;11.68;;;6.50;;
14203;SDS011;7185;51.854;6.622;2022-08-19T11:49:30;9.20;;;5.97;;
14203;SDS011;7185;51.854;6.622;2022-08-19T11:52:02;9.48;;;5.93;;
14203;SDS011;7185;51.854;6.622;2022-08-19T11:54:34;9.27;;;5.93;;
14203;SDS011;7185;51.854;6.622;2022-08-19T11:57:06;15.13;;;5.90;;
14203;SDS011;7185;51.854;6.622;2022-08-19T11:59:39;11.50;;;4.93;;
14203;SDS011;7185;51.854;6.622;2022-08-19T12:02:10;9.55;;;5.45;;
14203;SDS011;7185;51.854;6.622;2022-08-19T12:04:42;9.07;;;5.90;;
14203;SDS011;7185;51.854;6.622;2022-08-19T12:07:13;9.93;;;5.80;;
14203;SDS011;7185;51.854;6.622;2022-08-19T12:09:45;10.30;;;5.90;;
14203;SDS011;7185;51.854;6.622;2022-08-19T12:12:17;9.88;;;4.97;;
14203;SDS011;7185;51.854;6.622;2022-08-19T12:14:50;10.45;;;5.75;;
14203;SDS011;7185;51.854;6.622;2022-08-19T12:17:26;8.07;;;5.00;;
14203;SDS011;7185;51.854;6.622;2022-08-19T12:19:59;12.77;;;8.52;;
14203;SDS011;7185;51.854;6.622;2022-08-19T12:22:31;10.07;;;7.97;;
14203;SDS011;7185;51.854;6.622;2022-08-19T12:25:03;12.50;;;8.77;;
14203;SDS011;7185;51.854;6.622;2022-08-19T12:27:36;15.63;;;9.00;;
14203;SDS011;7185;51.854;6.622;2022-08-19T12:30:11;16.00;;;8.95;;
14203;SDS011;7185;51.854;6.622;2022-08-19T12:32:44;16.33;;;10.80;;
14203;SDS011;7185;51.854;6.622;2022-08-19T12:35:15;18.10;;;12.60;;
14203;SDS011;7185;51.854;6.622;2022-08-19T12:37:48;16.77;;;11.68;;
14203;SDS011;7185;51.854;6.622;2022-08-19T12:40:20;16.33;;;10.98;;
14203;SDS011;7185;51.854;6.622;2022-08-19T12:42:51;17.92;;;13.02;;
14203;SDS011;7185;51.854;6.622;2022-08-19T12:45:24;16.00;;;11.25;;
14203;SDS011;7185;51.854;6.622;2022-08-19T12:47:56;18.60;;;12.23;;
14203;SDS011;7185;51.854;6.622;2022-08-19T12:50:28;17.02;;;10.48;;
14203;SDS011;7185;51.854;6.622;2022-08-19T12:53:00;19.65;;;12.48;;
14203;SDS011;7185;51.854;6.622;2022-08-19T12:55:32;17.48;;;12.50;;
14203;SDS011;7185;51.854;6.622;2022-08-19T12:58:03;15.75;;;11.15;;
14203;SDS011;7185;51.854;6.622;2022-08-19T13:00:36;16.10;;;10.35;;
14203;SDS011;7185;51.854;6.622;2022-08-19T13:03:08;14.95;;;9.75;;
14203;SDS011;7185;51.854;6.622;2022-08-19T13:05:40;14.75;;;10.45;;
14203;SDS011;7185;51.854;6.622;2022-08-19T13:08:11;15.35;;;10.45;;
14203;SDS011;7185;51.854;6.622;2022-08-19T13:10:43;15.07;;;9.80;;
14203;SDS011;7185;51.854;6.622;2022-08-19T13:13:15;15.85;;;10.50;;
14203;SDS011;7185;51.854;6.622;2022-08-19T13:15:47;12.77;;;8.50;;
14203;SDS011;7185;51.854;6.622;2022-08-19T13:18:19;16.23;;;10.05;;
14203;SDS011;7185;51.854;6.622;2022-08-19T13:20:51;11.82;;;8.63;;
14203;SDS011;7185;51.854;6.622;2022-08-19T13:23:23;12.98;;;8.45;;
14203;SDS011;7185;51.854;6.622;2022-08-19T13:25:57;14.13;;;8.02;;
14203;SDS011;7185;51.854;6.622;2022-08-19T13:28:30;13.25;;;8.90;;
14203;SDS011;7185;51.854;6.622;2022-08-19T13:31:24;10.75;;;7.63;;
14203;SDS011;7185;51.854;6.622;2022-08-19T13:34:15;9.90;;;6.55;;
14203;SDS011;7185;51.854;6.622;2022-08-19T13:36:49;11.02;;;6.13;;
14203;SDS011;7185;51.854;6.622;2022-08-19T13:39:23;8.73;;;5.03;;
14203;SDS011;7185;51.854;6.622;2022-08-19T13:41:55;11.68;;;5.85;;
14203;SDS011;7185;51.854;6.622;2022-08-19T13:44:27;9.52;;;6.75;;
14203;SDS011;7185;51.854;6.622;2022-08-19T13:47:02;8.27;;;5.10;;
14203;SDS011;7185;51.854;6.622;2022-08-19T13:49:42;9.27;;;7.30;;
14203;SDS011;7185;51.854;6.622;2022-08-19T13:52:14;16.77;;;9.55;;
14203;SDS011;7185;51.854;6.622;2022-08-19T13:54:46;11.70;;;7.43;;
14203;SDS011;7185;51.854;6.622;2022-08-19T13:57:18;8.63;;;5.80;;
14203;SDS011;7185;51.854;6.622;2022-08-19T13:59:50;11.00;;;7.53;;
14203;SDS011;7185;51.854;6.622;2022-08-19T14:02:23;9.25;;;6.78;;
14203;SDS011;7185;51.854;6.622;2022-08-19T14:04:54;8.55;;;5.38;;
14203;SDS011;7185;51.854;6.622;2022-08-19T14:07:26;8.02;;;5.38;;
14203;SDS011;7185;51.854;6.622;2022-08-19T14:09:58;11.82;;;7.50;;
14203;SDS011;7185;51.854;6.622;2022-08-19T14:12:29;15.77;;;7.82;;
14203;SDS011;7185;51.854;6.622;2022-08-19T14:15:02;11.95;;;8.27;;
14203;SDS011;7185;51.854;6.622;2022-08-19T14:17:38;13.95;;;8.20;;
14203;SDS011;7185;51.854;6.622;2022-08-19T14:20:14;14.00;;;7.70;;
14203;SDS011;7185;51.854;6.622;2022-08-19T14:22:46;10.95;;;6.95;;
14203;SDS011;7185;51.854;6.622;2022-08-19T14:25:23;12.57;;;7.00;;
14203;SDS011;7185;51.854;6.622;2022-08-19T14:27:56;12.93;;;8.52;;
14203;SDS011;7185;51.854;6.622;2022-08-19T14:30:29;11.80;;;8.20;;
14203;SDS011;7185;51.854;6.622;2022-08-19T14:33:04;10.02;;;7.93;;
14203;SDS011;7185;51.854;6.622;2022-08-19T14:35:37;9.98;;;7.05;;
14203;SDS011;7185;51.854;6.622;2022-08-19T14:38:14;9.30;;;5.45;;
14203;SDS011;7185;51.854;6.622;2022-08-19T14:40:46;10.32;;;6.15;;
14203;SDS011;7185;51.854;6.622;2022-08-19T14:43:18;12.23;;;7.25;;
14203;SDS011;7185;51.854;6.622;2022-08-19T14:45:53;12.27;;;8.57;;
14203;SDS011;7185;51.854;6.622;2022-08-19T14:48:39;12.40;;;7.25;;
14203;SDS011;7185;51.854;6.622;2022-08-19T14:51:10;12.73;;;7.97;;
14203;SDS011;7185;51.854;6.622;2022-08-19T14:53:42;13.32;;;8.70;;
14203;SDS011;7185;51.854;6.622;2022-08-19T14:56:15;12.05;;;8.10;;
14203;SDS011;7185;51.854;6.622;2022-08-19T14:58:48;11.98;;;8.73;;
14203;SDS011;7185;51.854;6.622;2022-08-19T15:01:21;14.30;;;9.00;;
14203;SDS011;7185;51.854;6.622;2022-08-19T15:03:55;11.63;;;8.38;;
14203;SDS011;7185;51.854;6.622;2022-08-19T15:06:27;14.35;;;7.45;;
14203;SDS011;7185;51.854;6.622;2022-08-19T15:40:26;17.45;;;11.23;;
14203;SDS011;7185;51.854;6.622;2022-08-19T15:42:58;18.50;;;11.98;;
14203;SDS011;7185;51.854;6.622;2022-08-19T15:45:30;17.77;;;12.52;;
14203;SDS011;7185;51.854;6.622;2022-08-19T15:48:03;21.88;;;13.13;;
14203;SDS011;7185;51.854;6.622;2022-08-19T15:50:36;18.23;;;12.15;;
14203;SDS011;7185;51.854;6.622;2022-08-19T15:53:09;19.15;;;12.55;;
14203;SDS011;7185;51.854;6.622;2022-08-19T15:55:43;18.55;;;12.27;;
14203;SDS011;7185;51.854;6.622;2022-08-19T15:58:17;17.38;;;10.48;;
14203;SDS011;7185;51.854;6.622;2022-08-19T16:01:06;15.50;;;9.80;;
14203;SDS011;7185;51.854;6.622;2022-08-19T16:09:03;15.82;;;9.80;;